createdAt,value
2022-08-09T00:00:21.724Z,160942.91
2022-08-09T00:03:11.007Z,160922.78
2022-08-09T00:06:17.736Z,160921.47
2022-08-09T00:08:48.505Z,160908.06
2022-08-09T00:11:24.940Z,160912.03
2022-08-09T00:13:55.690Z,160908.06
2022-08-09T00:16:26.223Z,160901.34
2022-08-09T00:19:09.467Z,160900.03
2022-08-09T00:21:56.317Z,160890.63
2022-08-09T00:24:27.944Z,160861.16
2022-08-09T00:26:56.250Z,160851.78
2022-08-09T00:30:16.565Z,160847.75
2022-08-09T00:32:14.140Z,160838.38
2022-08-09T00:34:53.257Z,160824.97
2022-08-09T00:37:20.974Z,160818.28
2022-08-09T00:40:09.027Z,160774.09
2022-08-09T00:44:14.158Z,160760.69
2022-08-09T00:45:23.760Z,160747.28
2022-08-09T00:47:53.157Z,160755.31
2022-08-09T00:50:24.354Z,160754.00
2022-08-09T00:52:55.570Z,160744.63
2022-08-09T00:56:03.969Z,160748.63
2022-08-09T00:58:14.664Z,160719.16
2022-08-09T01:00:53.365Z,160701.78
2022-08-09T01:03:48.370Z,160691.03
2022-08-09T01:06:53.421Z,160674.94
2022-08-09T01:09:23.324Z,160674.94
2022-08-09T01:12:30.769Z,160657.50
2022-08-09T01:15:09.913Z,160646.81
2022-08-09T01:18:03.822Z,160640.13
2022-08-09T01:20:53.248Z,160644.09
2022-08-09T01:24:01.721Z,160638.78
2022-08-09T01:26:53.682Z,160622.69
2022-08-09T01:29:40.887Z,160602.66
2022-08-09T01:32:31.281Z,160618.69
2022-08-09T01:35:07.072Z,160610.69
2022-08-09T01:38:08.418Z,160612.00
2022-08-09T01:40:34.174Z,160614.66
2022-08-09T01:43:05.600Z,160637.47
2022-08-09T01:45:35.538Z,160648.16
2022-08-09T01:48:15.438Z,160654.84
2022-08-09T01:50:48.452Z,160662.88
2022-08-09T01:53:19.629Z,160661.53
2022-08-09T01:55:48.533Z,160670.91
2022-08-09T01:58:16.700Z,160653.50
2022-08-09T02:00:46.215Z,160660.22
2022-08-09T02:03:15.771Z,160654.84
2022-08-09T02:06:03.653Z,160634.75
2022-08-09T02:08:40.714Z,160633.44
2022-08-09T02:11:21.256Z,160628.06
2022-08-09T02:14:06.599Z,160625.41
2022-08-09T02:16:59.516Z,160638.78
2022-08-09T02:19:25.166Z,160634.75
2022-08-09T02:22:15.393Z,160614.66
2022-08-09T02:24:51.815Z,160630.75
2022-08-09T02:27:21.416Z,160628.06
2022-08-09T02:30:09.985Z,160630.75
2022-08-09T02:32:41.964Z,160644.09
2022-08-09T02:35:17.848Z,160652.19
2022-08-09T02:37:51.204Z,160650.81
2022-08-09T02:40:26.933Z,160641.44
2022-08-09T02:42:59.920Z,160653.50
2022-08-09T02:45:33.495Z,160653.50
2022-08-09T02:48:06.352Z,160669.56
2022-08-09T02:50:56.380Z,160664.19
2022-08-09T02:53:31.760Z,160672.22
2022-08-09T02:56:02.959Z,160678.94
2022-08-09T02:58:36.414Z,160672.22
2022-08-09T03:01:11.017Z,160661.53
2022-08-09T03:04:18.966Z,160638.78
2022-08-09T03:06:31.453Z,160637.47
2022-08-09T03:09:01.248Z,160625.41
2022-08-09T03:11:29.787Z,160642.78
2022-08-09T03:14:18.809Z,160638.78
2022-08-09T03:16:54.726Z,160650.81
2022-08-09T03:19:52.580Z,160669.56
2022-08-09T03:22:25.665Z,160672.22
2022-08-09T03:25:06.353Z,160664.19
2022-08-09T03:27:51.935Z,160657.50
2022-08-09T03:30:30.026Z,160662.88
2022-08-09T03:33:17.443Z,160678.94
2022-08-09T03:36:12.974Z,160684.28
2022-08-09T03:38:42.742Z,160678.94
2022-08-09T03:41:15.389Z,160677.59
2022-08-09T03:44:02.906Z,160673.59
2022-08-09T03:46:32.504Z,160678.94
2022-08-09T03:49:04.162Z,160682.97
2022-08-09T03:51:56.442Z,160692.38
2022-08-09T03:54:31.238Z,160704.44
2022-08-09T03:57:04.414Z,160720.50
2022-08-09T03:59:54.871Z,160729.91
2022-08-09T04:02:28.677Z,160721.81
2022-08-09T04:04:59.006Z,160729.91
2022-08-09T04:07:33.646Z,160737.94
2022-08-09T04:10:20.471Z,160743.31
2022-08-09T04:12:51.996Z,160747.28
2022-08-09T04:15:40.523Z,160751.34
2022-08-09T04:18:17.997Z,160756.66
2022-08-09T04:20:47.641Z,160767.41
2022-08-09T04:23:17.033Z,160774.09
2022-08-09T04:25:49.859Z,160776.75
2022-08-09T04:28:36.313Z,160778.09
2022-08-09T04:31:08.664Z,160774.09
2022-08-09T04:33:47.635Z,160780.78
2022-08-09T04:36:26.125Z,160774.09
2022-08-09T04:38:54.560Z,160786.16
2022-08-09T04:41:23.610Z,160791.47
2022-08-09T04:44:05.145Z,160807.59
2022-08-09T04:46:57.734Z,160811.59
2022-08-09T04:49:40.309Z,160808.94
2022-08-09T04:52:12.029Z,160835.72
2022-08-09T04:54:48.336Z,160849.06
2022-08-09T04:57:16.073Z,160849.06
2022-08-09T04:59:52.293Z,160845.09
2022-08-09T05:02:19.842Z,160842.44
2022-08-09T05:04:47.578Z,160866.50
2022-08-09T05:07:19.273Z,160857.16
2022-08-09T05:09:50.054Z,160879.91
2022-08-09T05:12:17.675Z,160883.91
2022-08-09T05:14:46.028Z,160890.63
2022-08-09T05:18:39.449Z,160902.69
2022-08-09T05:20:01.027Z,160900.03
2022-08-09T05:22:35.749Z,160934.88
2022-08-09T05:25:16.964Z,160936.19
2022-08-09T05:27:48.041Z,160928.16
2022-08-09T05:30:17.590Z,160946.88
2022-08-09T05:32:50.790Z,160953.59
2022-08-09T05:35:18.935Z,160973.75
2022-08-09T05:37:51.238Z,160991.19
2022-08-09T05:40:18.765Z,161003.22
2022-08-09T05:42:47.366Z,161016.63
2022-08-09T05:45:14.946Z,161024.66
2022-08-09T05:47:51.593Z,161040.78
2022-08-09T05:50:36.151Z,161044.78
2022-08-09T05:53:21.601Z,161052.81
2022-08-09T05:55:59.770Z,161047.50
2022-08-09T05:58:29.084Z,161054.13
2022-08-09T06:00:56.550Z,161076.97
2022-08-09T06:03:34.628Z,161080.97
2022-08-09T06:06:04.573Z,161087.66
2022-08-09T06:08:34.085Z,161072.94
2022-08-09T06:11:01.570Z,161075.59
2022-08-09T06:13:44.818Z,161075.59
2022-08-09T06:16:14.922Z,161113.16
2022-08-09T06:18:43.879Z,161097.09
2022-08-09T06:21:11.991Z,161095.69
2022-08-09T06:23:57.994Z,161111.81
2022-08-09T06:26:29.193Z,161114.47
2022-08-09T06:29:00.481Z,161118.53
2022-08-09T06:31:30.782Z,161134.59
2022-08-09T06:33:59.308Z,161139.97
2022-08-09T06:36:27.220Z,161173.44
2022-08-09T06:38:56.920Z,161220.41
2022-08-09T06:42:00.495Z,161227.09
2022-08-09T06:44:18.333Z,161227.09
2022-08-09T06:46:49.831Z,161255.31
2022-08-09T06:49:44.752Z,161272.72
2022-08-09T06:52:15.696Z,161311.63
2022-08-09T06:54:44.137Z,161319.69
2022-08-09T06:57:14.483Z,161327.72
2022-08-09T07:00:52.617Z,161358.56
2022-08-09T07:02:31.690Z,161358.56
2022-08-09T07:05:01.243Z,161353.22
2022-08-09T07:08:00.961Z,161371.97
2022-08-09T07:10:24.071Z,161374.69
2022-08-09T07:12:58.347Z,161374.69
2022-08-09T07:16:36.226Z,161416.28
2022-08-09T07:18:15.034Z,161428.31
2022-08-09T07:20:43.532Z,161457.81
2022-08-09T07:23:18.549Z,161500.84
2022-08-09T07:25:52.065Z,161512.88
2022-08-09T07:28:26.161Z,161559.88
2022-08-09T07:30:56.392Z,161577.28
2022-08-09T07:33:24.049Z,161592.03
2022-08-09T07:35:53.552Z,161584.00
2022-08-09T07:38:23.448Z,161602.78
2022-08-09T07:41:08.241Z,161616.22
2022-08-09T07:43:49.669Z,161628.31
2022-08-09T07:46:24.310Z,161655.13
2022-08-09T07:48:59.504Z,161679.31
2022-08-09T07:52:05.713Z,161704.78
2022-08-09T07:54:27.593Z,161712.81
2022-08-09T07:56:55.924Z,161710.16
2022-08-09T07:59:25.236Z,161738.41
2022-08-09T08:02:01.773Z,161774.66
2022-08-09T08:04:32.250Z,161789.41
2022-08-09T08:07:14.972Z,161837.75
2022-08-09T08:10:04.775Z,161829.69
2022-08-09T08:12:42.880Z,161871.34
2022-08-09T08:15:16.802Z,161859.22
2022-08-09T08:17:54.198Z,161867.28
2022-08-09T08:20:30.768Z,161894.16
2022-08-09T08:23:15.938Z,161829.69
2022-08-09T08:25:48.498Z,161900.88
2022-08-09T08:28:32.175Z,161947.88
2022-08-09T08:31:08.853Z,162040.63
2022-08-09T08:33:53.784Z,162099.72
2022-08-09T08:36:29.539Z,162142.69
2022-08-09T08:39:00.060Z,162215.28
2022-08-09T08:42:51.294Z,162265.03
2022-08-09T08:45:36.710Z,162320.13
2022-08-09T08:48:05.696Z,162333.59
2022-08-09T08:50:33.890Z,162384.66
2022-08-09T08:53:02.543Z,162388.72
2022-08-09T08:55:32.261Z,162437.16
2022-08-09T08:58:00.150Z,162599.94
2022-08-09T09:00:34.392Z,162667.16
2022-08-09T09:03:11.634Z,162581.03
2022-08-09T09:05:58.722Z,162517.81
2022-08-09T09:08:41.002Z,162505.72
2022-08-09T09:11:17.376Z,162466.72
2022-08-09T09:13:56.695Z,162446.56
2022-08-09T09:16:30.677Z,162418.31
2022-08-09T09:22:11.858Z,162383.31
2022-08-09T09:26:01.042Z,162398.16
2022-08-09T09:28:05.426Z,162435.78
2022-08-09T09:30:53.689Z,162373.94
2022-08-09T09:33:21.960Z,162356.41
2022-08-09T09:36:20.922Z,162399.47
2022-08-09T09:38:57.413Z,162437.16
2022-08-09T09:41:33.324Z,162411.59
2022-08-09T09:44:11.889Z,162411.59
2022-08-09T09:46:50.796Z,162431.78
2022-08-09T09:49:32.310Z,162447.91
2022-08-09T09:52:16.759Z,162458.69
2022-08-09T09:55:28.188Z,162486.91
2022-08-09T09:58:17.186Z,162465.41
2022-08-09T10:01:04.735Z,162520.50
2022-08-09T10:03:57.777Z,162546.06
2022-08-09T10:06:32.051Z,162566.25
2022-08-09T10:09:02.917Z,162555.47
2022-08-09T10:11:59.835Z,162539.34
2022-08-09T10:14:32.944Z,162513.75
2022-08-09T10:17:38.874Z,162543.38
2022-08-09T10:20:00.145Z,162556.78
2022-08-09T10:22:39.153Z,162579.69
2022-08-09T10:25:12.205Z,162628.16
2022-08-09T10:27:57.329Z,162645.63
2022-08-09T10:34:04.558Z,162683.28
2022-08-09T10:36:11.768Z,162684.63
2022-08-09T10:38:56.070Z,162690.00
2022-08-09T10:41:25.735Z,162700.78
2022-08-09T10:43:59.066Z,162694.06
2022-08-09T10:46:57.304Z,162739.78
2022-08-09T10:49:51.418Z,162789.56
2022-08-09T10:52:27.916Z,162751.91
2022-08-09T10:54:56.276Z,162758.63
2022-08-09T10:57:37.680Z,162804.41
2022-08-09T11:00:31.420Z,162807.13
2022-08-09T11:03:13.192Z,162774.75
2022-08-09T11:06:12.573Z,162715.59
2022-08-09T11:08:48.005Z,162686.00
2022-08-09T11:11:19.929Z,162688.69
2022-08-09T11:14:28.321Z,162668.47
2022-08-09T11:17:00.093Z,162719.59
2022-08-09T11:20:11.348Z,162828.66
2022-08-09T11:22:41.657Z,162809.81
2022-08-09T11:25:18.094Z,162788.22
2022-08-09T11:28:05.325Z,162796.34
2022-08-09T11:30:38.087Z,162786.88
2022-08-09T11:33:06.240Z,162852.84
2022-08-09T11:36:01.273Z,162807.13
2022-08-09T11:38:34.101Z,162797.69
2022-08-09T11:41:16.175Z,162716.91
2022-08-09T11:43:49.168Z,162657.75
2022-08-09T11:46:18.548Z,162616.06
2022-08-09T11:48:56.963Z,162576.97
2022-08-09T11:53:02.225Z,162651.03
2022-08-09T11:54:27.669Z,162673.88
2022-08-09T11:57:55.521Z,162695.41
2022-08-09T12:00:27.227Z,162746.50
2022-08-09T12:02:57.556Z,162795.00
2022-08-09T12:05:37.972Z,162809.81
2022-08-09T12:08:12.132Z,162813.88
2022-08-09T12:10:48.287Z,162808.47
2022-08-09T12:14:07.823Z,162777.50
2022-08-09T12:16:30.766Z,162770.75
2022-08-09T12:19:09.620Z,162751.91
2022-08-09T12:21:48.593Z,162723.66
2022-08-09T12:24:24.590Z,162696.75
2022-08-09T12:28:59.035Z,162671.22
2022-08-09T12:29:59.999Z,162653.69
2022-08-09T12:32:32.177Z,162677.94
2022-08-09T12:35:04.747Z,162750.56
2022-08-09T12:37:50.600Z,162838.06
2022-08-09T12:40:23.281Z,162864.97
2022-08-09T12:42:54.266Z,162764.03
2022-08-09T12:45:34.267Z,162727.72
2022-08-09T12:48:10.712Z,162625.44
2022-08-09T12:50:48.920Z,162598.53
2022-08-09T12:53:37.008Z,162576.97
2022-08-09T12:56:40.099Z,162548.72
2022-08-09T12:59:16.903Z,162490.91
2022-08-09T13:01:49.785Z,162478.81
2022-08-09T13:04:37.196Z,162449.22
2022-08-09T13:07:19.697Z,162427.72
2022-08-09T13:09:52.867Z,162412.94
2022-08-09T13:12:29.513Z,162406.22
2022-08-09T13:15:08.611Z,162422.38
2022-08-09T13:18:03.366Z,162407.53
2022-08-09T13:20:37.455Z,162457.28
2022-08-09T13:24:16.389Z,162488.25
2022-08-09T13:26:06.730Z,162516.47
2022-08-09T13:28:39.529Z,162525.88
2022-08-09T13:32:14.481Z,162527.22
2022-08-09T13:33:57.586Z,162583.69
2022-08-09T13:36:41.713Z,162634.84
2022-08-09T13:39:34.385Z,162677.94
2022-08-09T13:42:12.519Z,162673.88
2022-08-09T13:44:42.828Z,162707.53
2022-08-09T13:47:30.983Z,162688.69
2022-08-09T13:50:18.015Z,162703.47
2022-08-09T13:52:57.737Z,162743.84
2022-08-09T13:55:28.994Z,162753.25
2022-08-09T13:57:59.343Z,162737.09
2022-08-09T14:00:29.479Z,162694.06
2022-08-09T14:03:04.535Z,162680.59
2022-08-09T14:05:57.299Z,162681.94
2022-08-09T14:08:28.297Z,162679.28
2022-08-09T14:10:57.255Z,162710.19
2022-08-09T14:14:16.368Z,162695.41
2022-08-09T14:16:16.334Z,162722.31
2022-08-09T14:18:49.631Z,162684.63
2022-08-09T14:21:21.098Z,162712.88
2022-08-09T14:23:53.650Z,162726.31
2022-08-09T14:26:32.165Z,162719.59
2022-08-09T14:30:04.182Z,162683.28
2022-08-09T14:31:57.530Z,162676.56
2022-08-09T14:34:27.534Z,162675.22
2022-08-09T14:37:07.488Z,162696.75
2022-08-09T14:39:46.978Z,162730.38
2022-08-09T14:42:30.530Z,162758.63
2022-08-09T14:46:46.095Z,162809.81
2022-08-09T14:48:00.235Z,162805.78
2022-08-09T14:50:35.188Z,162785.56
2022-08-09T14:53:11.455Z,162719.59
2022-08-09T14:55:49.817Z,162733.06
2022-08-09T14:58:18.677Z,162718.25
2022-08-09T15:00:48.442Z,162772.09
2022-08-09T15:03:20.446Z,162792.34
2022-08-09T15:05:52.537Z,162759.97
2022-08-09T15:08:24.618Z,162698.06
2022-08-09T15:11:00.979Z,162710.19
2022-08-09T15:13:56.042Z,162677.94
2022-08-09T15:16:17.562Z,162621.44
2022-08-09T15:18:48.286Z,162624.13
2022-08-09T15:21:54.744Z,162626.78
2022-08-09T15:24:12.771Z,162613.31
2022-08-09T15:26:46.583Z,162601.25
2022-08-09T15:30:48.802Z,162551.44
2022-08-09T15:32:02.790Z,162535.28
2022-08-09T15:34:34.770Z,162529.94
2022-08-09T15:37:37.102Z,162547.41
2022-08-09T15:40:11.790Z,162546.06
2022-08-09T15:42:40.752Z,162538.00
2022-08-09T15:45:13.143Z,162535.28
2022-08-09T15:47:52.807Z,162550.13
2022-08-09T15:50:29.159Z,162559.50
2022-08-09T15:53:06.034Z,162558.19
2022-08-09T15:56:18.083Z,162521.88
2022-08-09T15:58:27.100Z,162529.94
2022-08-09T16:00:56.793Z,162528.56
2022-08-09T16:03:29.428Z,162517.81
2022-08-09T16:06:07.169Z,162484.19
2022-08-09T16:08:56.294Z,162460.00
2022-08-09T16:11:27.141Z,162462.69
2022-08-09T16:14:02.864Z,162466.72
2022-08-09T16:16:37.231Z,162458.69
2022-08-09T16:19:07.782Z,162422.38
2022-08-09T16:21:37.101Z,162387.38
2022-08-09T16:24:05.933Z,162375.25
2022-08-09T16:26:53.693Z,162353.75
2022-08-09T16:29:37.286Z,162367.19
2022-08-09T16:32:18.310Z,162369.88
2022-08-09T16:34:56.550Z,162380.66
2022-08-09T16:37:53.682Z,162348.38
2022-08-09T16:40:20.440Z,162334.91
2022-08-09T16:42:48.716Z,162325.53
2022-08-09T16:45:19.810Z,162298.63
2022-08-09T16:48:41.535Z,162271.75
2022-08-09T16:50:39.188Z,162248.91
2022-08-09T16:53:08.961Z,162232.78
2022-08-09T16:55:58.290Z,162207.25
2022-08-09T16:58:25.452Z,162179.03
2022-08-09T17:00:53.385Z,162162.84
2022-08-09T17:03:23.018Z,162156.13
2022-08-09T17:06:06.615Z,162135.97
2022-08-09T17:09:03.013Z,162123.88
2022-08-09T17:11:40.781Z,162117.19
2022-08-09T17:14:26.215Z,162106.44
2022-08-09T17:17:00.059Z,162101.03
2022-08-09T17:19:47.212Z,162066.09
2022-08-09T17:22:24.856Z,162047.34
2022-08-09T17:25:10.116Z,162032.56
2022-08-09T17:27:49.618Z,162016.41
2022-08-09T17:30:28.147Z,161964.03
2022-08-09T17:33:01.013Z,161953.22
2022-08-09T17:35:34.873Z,161923.69
2022-08-09T17:38:13.179Z,161888.78
2022-08-09T17:40:50.437Z,161852.53
2022-08-09T17:43:33.618Z,161817.59
2022-08-09T17:46:09.632Z,161767.94
2022-08-09T17:48:51.594Z,161730.34
2022-08-09T17:51:20.682Z,161698.06
2022-08-09T17:53:53.385Z,161659.16
2022-08-09T17:56:35.733Z,161621.59
2022-08-09T17:59:11.946Z,161585.31
2022-08-09T18:02:06.770Z,161553.16
2022-08-09T18:04:31.942Z,161480.66
2022-08-09T18:07:04.658Z,161448.44
2022-08-09T18:09:40.576Z,161414.88
2022-08-09T18:12:19.601Z,161389.44
2022-08-09T18:14:54.672Z,161347.84
2022-08-09T18:18:01.057Z,161322.34
2022-08-09T18:20:54.252Z,161270.06
2022-08-09T18:23:05.676Z,161264.69
2022-08-09T18:25:53.062Z,161215.03
2022-08-09T18:30:37.956Z,161169.47
2022-08-09T18:31:15.375Z,161149.34
2022-08-09T18:33:53.965Z,161145.28
2022-08-09T18:36:26.089Z,161117.16
2022-08-09T18:39:02.474Z,161087.66
2022-08-09T18:41:34.327Z,161056.84
2022-08-09T18:44:12.618Z,161038.06
2022-08-09T18:46:50.786Z,161027.38
2022-08-09T18:49:31.860Z,161012.63
2022-08-09T18:52:00.162Z,161007.28
2022-08-09T18:54:28.406Z,160997.91
2022-08-09T18:57:06.349Z,161009.94
2022-08-09T18:59:51.569Z,161003.22
2022-08-09T19:02:31.645Z,161004.56
2022-08-09T19:05:20.507Z,161001.91
2022-08-09T19:08:04.768Z,160992.53
2022-08-09T19:10:39.573Z,160996.53
2022-08-09T19:13:23.022Z,161001.91
2022-08-09T19:15:56.284Z,160992.53
2022-08-09T19:18:35.822Z,160996.53
2022-08-09T19:21:09.153Z,160999.22
2022-08-09T19:24:35.866Z,160993.88
2022-08-09T19:26:32.659Z,160995.19
2022-08-09T19:29:15.380Z,160993.88
2022-08-09T19:31:49.541Z,160988.50
2022-08-09T19:34:22.828Z,160992.53
2022-08-09T19:36:53.610Z,160969.75
2022-08-09T19:39:43.900Z,160958.97
2022-08-09T19:42:14.479Z,160950.94
2022-08-09T19:44:42.946Z,160932.16
2022-08-09T19:47:11.225Z,160936.19
2022-08-09T19:50:09.569Z,160933.47
2022-08-09T19:52:28.226Z,160917.41
2022-08-09T19:54:56.074Z,160921.47
2022-08-09T19:57:26.425Z,160914.75
2022-08-09T19:59:59.287Z,160889.28
2022-08-09T20:04:18.522Z,160878.59
2022-08-09T20:05:25.265Z,160846.41
2022-08-09T20:08:00.230Z,160830.34
2022-08-09T20:10:34.384Z,160796.84
2022-08-09T20:13:03.239Z,160796.84
2022-08-09T20:16:37.626Z,160796.84
2022-08-09T20:18:19.633Z,160799.50
2022-08-09T20:20:47.755Z,160799.50
2022-08-09T20:23:22.892Z,160804.88
2022-08-09T20:25:53.562Z,160795.53
2022-08-09T20:28:27.608Z,160776.75
2022-08-09T20:31:05.334Z,160778.09
2022-08-09T20:33:40.972Z,160762.03
2022-08-09T20:36:12.035Z,160717.84
2022-08-09T20:41:35.182Z,160665.59
2022-08-09T20:44:10.086Z,160657.50
2022-08-09T20:46:43.020Z,160652.19
2022-08-09T20:49:15.842Z,160646.81
2022-08-09T20:51:44.567Z,160618.69
2022-08-09T20:54:18.335Z,160614.66
2022-08-09T20:56:53.388Z,160573.16
2022-08-09T20:59:25.044Z,160582.56
2022-08-09T21:02:18.579Z,160579.84
2022-08-09T21:05:56.366Z,160566.50
2022-08-09T21:07:40.701Z,160558.44
2022-08-09T21:10:12.116Z,160547.75
2022-08-09T21:12:39.857Z,160529.00
2022-08-09T21:15:12.353Z,160520.97
2022-08-09T21:18:20.799Z,160504.91
2022-08-09T21:20:30.122Z,160468.78
2022-08-09T21:22:59.640Z,160429.94
2022-08-09T21:25:55.815Z,160405.88
2022-08-09T21:28:34.832Z,160399.19
2022-08-09T21:31:16.704Z,160388.44
2022-08-09T21:33:50.556Z,160367.00
2022-08-09T21:36:27.999Z,160353.59
2022-08-09T21:39:00.141Z,160348.28
2022-08-09T21:42:03.590Z,160328.22
2022-08-09T21:44:32.847Z,160324.19
2022-08-09T21:47:08.457Z,160310.78
2022-08-09T21:49:40.074Z,160294.75
2022-08-09T21:52:14.998Z,160282.69
2022-08-09T21:54:57.182Z,160251.94
2022-08-09T21:57:38.815Z,160245.25
2022-08-09T22:00:32.204Z,160218.50
2022-08-09T22:03:04.487Z,160221.19
2022-08-09T22:05:36.690Z,160210.47
2022-08-09T22:08:13.606Z,160197.09
2022-08-09T22:11:50.099Z,160181.06
2022-08-09T22:13:34.874Z,160166.34
2022-08-09T22:16:07.106Z,160170.34
2022-08-09T22:18:54.484Z,160166.34
2022-08-09T22:21:45.316Z,160151.66
2022-08-09T22:24:17.226Z,160132.91
2022-08-09T22:26:51.426Z,160135.56
2022-08-09T22:29:24.062Z,160130.25
2022-08-09T22:31:58.026Z,160115.53
2022-08-09T22:34:26.843Z,160103.50
2022-08-09T22:36:58.932Z,160102.16
2022-08-09T22:39:55.838Z,160098.13
2022-08-09T22:42:22.398Z,160088.78
2022-08-09T22:45:01.568Z,160070.06
2022-08-09T22:48:34.064Z,160051.38
2022-08-09T22:50:30.040Z,160040.59
2022-08-09T22:52:58.856Z,160031.25
2022-08-09T22:55:33.730Z,160020.53
2022-08-09T22:58:30.568Z,160032.59
2022-08-09T23:01:02.020Z,159995.16
2022-08-09T23:04:03.673Z,159996.50
2022-08-09T23:06:32.665Z,160008.53
2022-08-09T23:09:07.867Z,159989.81
2022-08-09T23:11:36.053Z,159979.09
2022-08-09T23:14:10.285Z,159961.72
2022-08-09T23:16:45.494Z,159980.47
2022-08-09T23:19:13.025Z,159977.75
2022-08-09T23:21:40.579Z,159975.09
2022-08-09T23:24:08.470Z,159967.09
2022-08-09T23:26:37.220Z,159951.00
2022-08-09T23:29:10.150Z,159955.03
2022-08-09T23:31:38.118Z,159951.00
2022-08-09T23:34:05.482Z,159948.34
2022-08-09T23:36:34.383Z,159932.34
2022-08-09T23:39:04.609Z,159913.59
2022-08-09T23:41:32.486Z,159909.56
2022-08-09T23:44:01.862Z,159905.59
2022-08-09T23:46:30.401Z,159901.56
2022-08-09T23:48:59.355Z,159892.22
2022-08-09T23:51:27.597Z,159890.91
2022-08-09T23:54:02.134Z,159881.56
2022-08-09T23:56:52.631Z,159873.50
2022-08-09T23:59:23.402Z,159868.19
